Fabre, Canada
Current Conditions -  °F | °C
As of 8:00 PM on Saturday 22 Nov 2014 (Local Time) from CYXR Reporting Station
Overcast Overcast  
Wind Chill: 28°   Ceiling: 1800
Heat Index: 34°   Visibility: 9mi
Dew Point: 32°   Wind: 7mph
Humidity: 93%   Direction: 220°SW
Pressure: 29.73"   Gusts: NA
Location:  47.2°N, 79.37°W
Report Text: CYXR 230100Z AUTO 22006KT 9SM OVC018 01/00 A2973 RMK SLP079
Loading
Personal Weather Stations






























Interactive Weather Map New forecast layout! Learn more

10-Day Weather Forecast

Advertisements
Track Severe Weather on mobile